createdAt,value
2019-04-29T00:01:00.568Z,38.90
2019-04-29T00:03:31.364Z,39.60
2019-04-29T00:06:02.155Z,32.83
2019-04-29T00:08:32.914Z,37.10
2019-04-29T00:11:03.532Z,34.40
2019-04-29T00:13:34.310Z,41.20
2019-04-29T00:16:13.416Z,33.63
2019-04-29T00:18:56.598Z,32.80
2019-04-29T00:21:27.452Z,37.53
2019-04-29T00:24:04.149Z,36.47
2019-04-29T00:26:30.573Z,36.03
2019-04-29T00:29:01.386Z,34.43
2019-04-29T00:31:32.350Z,36.93
2019-04-29T00:34:03.121Z,35.63
2019-04-29T00:36:39.697Z,38.00
2019-04-29T00:39:24.639Z,35.67
2019-04-29T00:42:20.472Z,39.20
2019-04-29T00:44:51.116Z,38.63
2019-04-29T00:47:21.620Z,39.67
2019-04-29T00:49:52.531Z,39.10
2019-04-29T00:52:23.127Z,35.07
2019-04-29T00:55:00.353Z,44.30
2019-04-29T00:57:30.820Z,40.97
2019-04-29T01:00:01.247Z,44.93
2019-04-29T01:02:33.492Z,43.50
2019-04-29T01:05:04.835Z,44.97
2019-04-29T01:07:35.823Z,42.13
2019-04-29T01:10:07.357Z,44.90
2019-04-29T01:12:38.088Z,44.47
2019-04-29T01:15:10.018Z,43.60
2019-04-29T01:17:40.521Z,42.73
2019-04-29T01:20:11.415Z,46.93
2019-04-29T01:22:42.967Z,41.60
2019-04-29T01:25:14.423Z,47.20
2019-04-29T01:27:51.368Z,43.70
2019-04-29T01:31:15.653Z,38.57
2019-04-29T01:33:48.081Z,44.93
2019-04-29T01:36:36.446Z,41.97
2019-04-29T01:39:09.611Z,39.40
2019-04-29T01:42:05.266Z,39.53
2019-04-29T01:44:37.368Z,39.50
2019-04-29T01:47:07.902Z,43.83
2019-04-29T01:49:38.963Z,41.17
2019-04-29T01:52:09.792Z,41.10
2019-04-29T01:54:40.746Z,38.67
2019-04-29T01:57:11.276Z,40.20
2019-04-29T01:59:41.934Z,41.40
2019-04-29T02:02:12.547Z,35.80
2019-04-29T02:04:43.492Z,33.67
2019-04-29T02:07:14.320Z,39.77
2019-04-29T02:10:00.412Z,36.63
2019-04-29T02:12:31.142Z,42.67
2019-04-29T02:15:02.078Z,39.07
2019-04-29T02:17:32.604Z,35.90
2019-04-29T02:20:03.340Z,41.57
2019-04-29T02:22:39.172Z,40.53
2019-04-29T02:25:23.627Z,39.83
2019-04-29T02:27:54.782Z,39.83
2019-04-29T02:30:43.920Z,38.73
2019-04-29T02:33:14.382Z,42.37
2019-04-29T02:35:45.394Z,42.17
2019-04-29T02:38:37.987Z,47.33
2019-04-29T02:41:19.157Z,45.97
2019-04-29T02:43:51.361Z,45.10
2019-04-29T02:46:22.200Z,37.60
2019-04-29T02:48:52.767Z,47.97
2019-04-29T02:51:41.074Z,42.33
2019-04-29T02:54:11.492Z,44.73
2019-04-29T02:56:44.808Z,39.23
2019-04-29T02:59:16.850Z,42.13
2019-04-29T03:01:58.785Z,43.33
2019-04-29T03:04:31.844Z,40.53
2019-04-29T03:07:02.984Z,39.97
2019-04-29T03:09:40.508Z,40.23
2019-04-29T03:12:11.900Z,42.47
2019-04-29T03:14:42.463Z,42.77
2019-04-29T03:17:13.130Z,43.57
2019-04-29T03:20:02.931Z,40.77
2019-04-29T03:22:34.945Z,39.93
2019-04-29T03:25:06.236Z,40.60
2019-04-29T03:27:36.819Z,44.97
2019-04-29T03:30:08.000Z,43.03
2019-04-29T03:32:38.964Z,41.30
2019-04-29T03:35:09.890Z,46.37
2019-04-29T03:37:40.706Z,44.83
2019-04-29T03:40:11.631Z,40.80
2019-04-29T03:42:42.119Z,41.37
2019-04-29T03:45:13.962Z,51.30
2019-04-29T03:47:44.418Z,43.07
2019-04-29T03:50:15.191Z,39.83
2019-04-29T03:52:46.674Z,42.17
2019-04-29T03:55:17.233Z,40.77
2019-04-29T03:57:48.109Z,39.67
2019-04-29T04:00:19.018Z,41.67
2019-04-29T04:03:11.525Z,46.47
2019-04-29T04:05:49.832Z,40.57
2019-04-29T04:08:38.212Z,44.97
2019-04-29T04:11:08.760Z,42.13
2019-04-29T04:13:39.229Z,40.17
2019-04-29T04:16:12.875Z,44.47
2019-04-29T04:18:43.412Z,40.47
2019-04-29T04:21:14.092Z,47.63
2019-04-29T04:23:44.681Z,45.03
2019-04-29T04:26:15.213Z,44.73
2019-04-29T04:28:45.705Z,41.83
2019-04-29T04:31:16.297Z,43.17
2019-04-29T04:33:47.009Z,39.33
2019-04-29T04:36:17.469Z,40.47
2019-04-29T04:38:48.224Z,44.07
2019-04-29T04:41:18.864Z,40.63
2019-04-29T04:43:50.407Z,46.17
2019-04-29T04:46:21.059Z,50.47
2019-04-29T04:48:51.576Z,40.33
2019-04-29T04:51:23.311Z,38.33
2019-04-29T04:53:53.755Z,39.17
2019-04-29T04:56:24.700Z,35.53
2019-04-29T04:58:55.617Z,38.20
2019-04-29T05:01:26.138Z,38.80
2019-04-29T05:03:56.666Z,35.47
2019-04-29T05:06:27.353Z,38.37
2019-04-29T05:08:57.845Z,35.47
2019-04-29T05:11:28.307Z,38.30
2019-04-29T05:13:58.977Z,40.07
2019-04-29T05:16:29.435Z,34.87
2019-04-29T05:19:00.124Z,36.47
2019-04-29T05:21:30.720Z,37.17
2019-04-29T05:24:01.173Z,40.10
2019-04-29T05:26:31.844Z,36.63
2019-04-29T05:29:02.303Z,36.90
2019-04-29T05:31:32.835Z,34.00
2019-04-29T05:34:03.709Z,33.60
2019-04-29T05:36:51.298Z,34.20
2019-04-29T05:39:24.931Z,32.17
2019-04-29T05:41:55.759Z,32.20
2019-04-29T05:44:38.075Z,33.27
2019-04-29T05:47:13.392Z,31.27
2019-04-29T05:49:49.196Z,33.90
2019-04-29T05:52:29.742Z,37.03
2019-04-29T05:55:01.427Z,35.60
2019-04-29T05:57:31.287Z,32.37
2019-04-29T06:00:01.919Z,31.13
2019-04-29T06:02:35.143Z,35.73
2019-04-29T06:05:05.667Z,32.00
2019-04-29T06:07:36.249Z,29.67
2019-04-29T06:10:06.899Z,32.47
2019-04-29T06:12:37.454Z,33.60
2019-04-29T06:15:08.714Z,31.10
2019-04-29T06:17:40.119Z,30.20
2019-04-29T06:20:17.162Z,28.30
2019-04-29T06:22:45.414Z,28.10
2019-04-29T06:25:15.975Z,26.87
2019-04-29T06:27:46.857Z,27.20
2019-04-29T06:30:17.352Z,25.77
2019-04-29T06:32:47.789Z,33.80
2019-04-29T06:35:18.330Z,28.53
2019-04-29T06:37:48.959Z,36.20
2019-04-29T06:40:19.514Z,34.17
2019-04-29T06:42:53.496Z,28.20
2019-04-29T06:45:22.108Z,37.37
2019-04-29T06:47:52.964Z,36.63
2019-04-29T06:50:23.545Z,33.07
2019-04-29T06:52:54.162Z,38.50
2019-04-29T06:55:25.183Z,28.83
2019-04-29T06:57:55.752Z,33.83
2019-04-29T07:00:26.311Z,30.43
2019-04-29T07:02:56.795Z,27.87
2019-04-29T07:05:27.555Z,33.40
2019-04-29T07:07:57.974Z,30.10
2019-04-29T07:10:28.485Z,28.40
2019-04-29T07:12:59.320Z,30.70
2019-04-29T07:15:29.886Z,28.37
2019-04-29T07:18:00.435Z,28.33
2019-04-29T07:20:32.539Z,30.07
2019-04-29T07:23:03.145Z,28.33
2019-04-29T07:25:33.618Z,28.80
2019-04-29T07:28:04.089Z,27.50
2019-04-29T07:30:39.193Z,26.93
2019-04-29T07:33:06.703Z,29.87
2019-04-29T07:35:38.313Z,32.97
2019-04-29T07:38:09.907Z,36.10
2019-04-29T07:40:43.499Z,33.73
2019-04-29T07:43:12.602Z,32.77
2019-04-29T07:45:52.632Z,29.17
2019-04-29T07:48:24.393Z,39.33
2019-04-29T07:50:55.406Z,30.90
2019-04-29T07:53:35.059Z,25.40
2019-04-29T07:56:01.778Z,25.43
2019-04-29T07:58:30.008Z,25.13
2019-04-29T08:01:01.494Z,25.97
2019-04-29T08:03:32.283Z,26.20
2019-04-29T08:06:03.089Z,25.10
2019-04-29T08:08:34.853Z,24.53
2019-04-29T08:11:05.296Z,24.27
2019-04-29T08:13:36.876Z,27.40
2019-04-29T08:16:07.333Z,26.67
2019-04-29T08:18:37.913Z,27.03
2019-04-29T08:21:10.246Z,25.53
2019-04-29T08:23:42.072Z,26.17
2019-04-29T08:26:13.077Z,23.90
2019-04-29T08:28:43.568Z,23.60
2019-04-29T08:31:16.555Z,27.73
2019-04-29T08:33:46.808Z,24.17
2019-04-29T08:36:18.398Z,25.77
2019-04-29T08:38:48.791Z,26.10
2019-04-29T08:41:21.019Z,27.23
2019-04-29T08:44:16.501Z,22.73
2019-04-29T08:46:54.355Z,23.37
2019-04-29T08:49:24.849Z,23.03
2019-04-29T08:51:55.245Z,23.97
2019-04-29T08:54:26.981Z,23.80
2019-04-29T08:57:02.781Z,20.90
2019-04-29T08:59:29.435Z,28.00
2019-04-29T09:02:05.296Z,21.20
2019-04-29T09:04:35.186Z,22.87
2019-04-29T09:07:12.767Z,21.80
2019-04-29T09:09:39.135Z,25.13
2019-04-29T09:12:10.157Z,21.37
2019-04-29T09:14:40.699Z,24.83
2019-04-29T09:17:20.212Z,21.93
2019-04-29T09:19:43.520Z,25.10
2019-04-29T09:22:16.681Z,24.47
2019-04-29T09:25:05.130Z,24.03
2019-04-29T09:27:40.761Z,24.93
2019-04-29T09:30:10.652Z,24.00
2019-04-29T09:32:41.553Z,24.87
2019-04-29T09:35:12.215Z,23.17
2019-04-29T09:37:42.914Z,33.40
2019-04-29T09:40:15.962Z,25.40
2019-04-29T09:43:21.493Z,24.77
2019-04-29T09:46:00.330Z,29.10
2019-04-29T09:48:31.054Z,30.53
2019-04-29T09:51:01.859Z,22.73
2019-04-29T09:53:32.487Z,24.70
2019-04-29T09:56:03.098Z,21.03
2019-04-29T09:58:33.578Z,22.40
2019-04-29T10:01:18.775Z,24.83
2019-04-29T10:04:00.246Z,22.90
2019-04-29T10:06:33.511Z,21.07
2019-04-29T10:09:06.213Z,25.30
2019-04-29T10:11:37.154Z,22.03
2019-04-29T10:14:07.804Z,33.50
2019-04-29T10:17:15.401Z,32.37
2019-04-29T10:19:58.977Z,23.07
2019-04-29T10:22:29.971Z,24.77
2019-04-29T10:25:00.437Z,38.33
2019-04-29T10:27:31.073Z,25.50
2019-04-29T10:30:01.713Z,22.60
2019-04-29T10:32:32.317Z,24.73
2019-04-29T10:35:03.634Z,28.77
2019-04-29T10:37:35.131Z,23.70
2019-04-29T10:40:25.839Z,20.80
2019-04-29T10:43:21.348Z,24.43
2019-04-29T10:46:10.867Z,22.60
2019-04-29T10:48:50.484Z,22.33
2019-04-29T10:51:23.232Z,22.03
2019-04-29T10:53:53.752Z,23.07
2019-04-29T10:56:25.490Z,25.27
2019-04-29T10:58:55.974Z,24.73
2019-04-29T11:02:09.329Z,22.20
2019-04-29T11:04:38.101Z,22.90
2019-04-29T11:07:30.150Z,23.57
2019-04-29T11:10:08.054Z,23.00
2019-04-29T11:12:39.724Z,24.57
2019-04-29T11:15:14.055Z,20.13
2019-04-29T11:17:44.609Z,20.17
2019-04-29T11:20:17.165Z,26.07
2019-04-29T11:22:54.178Z,24.70
2019-04-29T11:25:41.981Z,20.97
2019-04-29T11:28:16.210Z,23.03
2019-04-29T11:30:44.483Z,19.37
2019-04-29T11:33:23.247Z,26.63
2019-04-29T11:36:05.501Z,24.03
2019-04-29T11:38:38.321Z,26.60
2019-04-29T11:41:12.328Z,24.43
2019-04-29T11:43:42.059Z,20.03
2019-04-29T11:46:14.453Z,20.67
2019-04-29T11:48:45.129Z,22.23
2019-04-29T11:51:34.065Z,19.87
2019-04-29T11:54:08.168Z,55.20
2019-04-29T11:56:39.600Z,26.13
2019-04-29T11:59:28.040Z,21.97
2019-04-29T12:02:16.212Z,19.20
2019-04-29T12:05:04.187Z,19.47
2019-04-29T12:07:34.125Z,19.53
2019-04-29T12:10:06.478Z,25.47
2019-04-29T12:12:37.781Z,20.43
2019-04-29T12:15:17.451Z,25.83
2019-04-29T12:17:55.093Z,16.77
2019-04-29T12:20:47.407Z,15.43
2019-04-29T12:23:17.919Z,16.67
2019-04-29T12:25:48.656Z,16.77
2019-04-29T12:28:20.120Z,22.80
2019-04-29T12:30:52.149Z,16.07
2019-04-29T12:33:32.421Z,21.57
2019-04-29T12:36:08.222Z,19.67
2019-04-29T12:38:56.166Z,18.77
2019-04-29T12:41:49.189Z,17.00
2019-04-29T12:44:34.926Z,18.37
2019-04-29T12:47:26.249Z,16.80
2019-04-29T12:49:49.533Z,16.30
2019-04-29T12:52:20.474Z,18.85
2019-04-29T12:54:51.002Z,16.73
2019-04-29T12:57:23.515Z,19.25
2019-04-29T12:59:54.623Z,17.65
2019-04-29T13:02:50.448Z,19.52
2019-04-29T13:05:35.811Z,12.45
2019-04-29T13:08:12.570Z,14.63
2019-04-29T13:10:50.863Z,16.97
2019-04-29T13:13:22.026Z,14.75
2019-04-29T13:16:08.464Z,16.65
2019-04-29T13:18:53.906Z,23.30
2019-04-29T13:21:25.653Z,16.52
2019-04-29T13:24:12.525Z,13.62
2019-04-29T13:26:29.064Z,13.32
2019-04-29T13:29:01.628Z,15.43
2019-04-29T13:31:38.424Z,13.80
2019-04-29T13:34:23.010Z,17.00
2019-04-29T13:36:39.300Z,19.62
2019-04-29T13:39:10.061Z,15.20
2019-04-29T13:41:56.083Z,17.07
2019-04-29T13:44:12.940Z,16.50
2019-04-29T13:47:14.745Z,15.88
2019-04-29T13:49:49.411Z,15.95
2019-04-29T13:52:20.546Z,15.95
2019-04-29T13:54:51.254Z,15.30
2019-04-29T13:57:21.931Z,10.50
2019-04-29T14:00:14.299Z,14.03
2019-04-29T14:03:07.297Z,16.77
2019-04-29T14:05:36.638Z,12.43
2019-04-29T14:08:08.242Z,16.15
2019-04-29T14:10:38.656Z,16.42
2019-04-29T14:13:15.199Z,20.60
2019-04-29T14:15:42.260Z,21.25
2019-04-29T14:18:13.722Z,20.37
2019-04-29T14:20:47.197Z,15.53
2019-04-29T14:23:16.510Z,15.90
2019-04-29T14:25:46.969Z,20.80
2019-04-29T14:28:17.587Z,15.90
2019-04-29T14:30:49.218Z,23.40
2019-04-29T14:33:25.796Z,18.90
2019-04-29T14:36:05.360Z,25.68
2019-04-29T14:38:40.016Z,18.20
2019-04-29T14:41:08.079Z,24.37
2019-04-29T14:44:06.768Z,19.10
2019-04-29T14:46:47.858Z,18.90
2019-04-29T14:49:21.836Z,16.93
2019-04-29T14:51:52.810Z,22.47
2019-04-29T14:54:23.299Z,20.20
2019-04-29T14:56:54.215Z,24.77
2019-04-29T14:59:25.046Z,24.17
2019-04-29T15:02:03.219Z,18.87
2019-04-29T15:04:37.075Z,17.40
2019-04-29T15:07:07.593Z,19.57
2019-04-29T15:09:55.850Z,18.47
2019-04-29T15:13:18.422Z,16.77
2019-04-29T15:16:03.376Z,17.23
2019-04-29T15:18:47.690Z,17.00
2019-04-29T15:21:45.261Z,16.07
2019-04-29T15:24:17.492Z,23.57
2019-04-29T15:26:48.485Z,16.50
2019-04-29T15:29:19.053Z,16.03
2019-04-29T15:31:50.007Z,25.20
2019-04-29T15:34:20.493Z,18.83
2019-04-29T15:36:51.147Z,14.47
2019-04-29T15:39:25.243Z,12.63
2019-04-29T15:41:55.820Z,12.90
2019-04-29T15:44:26.794Z,13.63
2019-04-29T15:46:57.545Z,15.63
2019-04-29T15:49:28.432Z,23.63
2019-04-29T15:51:58.989Z,14.03
2019-04-29T15:54:29.560Z,21.83
2019-04-29T15:57:03.792Z,28.67
2019-04-29T15:59:47.749Z,33.37
2019-04-29T16:02:06.689Z,21.33
2019-04-29T16:04:47.122Z,20.73
2019-04-29T16:07:46.685Z,27.67
2019-04-29T16:10:44.010Z,21.30
2019-04-29T16:13:14.808Z,14.53
2019-04-29T16:15:45.779Z,18.97
2019-04-29T16:18:16.499Z,12.47
2019-04-29T16:20:53.294Z,14.23
2019-04-29T16:23:19.303Z,11.87
2019-04-29T16:25:52.174Z,12.80
2019-04-29T16:28:24.246Z,18.47
2019-04-29T16:30:54.495Z,14.13
2019-04-29T16:33:25.017Z,21.27
2019-04-29T16:35:57.553Z,27.77
2019-04-29T16:38:27.785Z,25.90
2019-04-29T16:41:07.020Z,30.20
2019-04-29T16:43:47.482Z,23.60
2019-04-29T16:46:23.531Z,24.37
2019-04-29T16:48:53.959Z,31.10
2019-04-29T16:51:24.613Z,22.00
2019-04-29T16:53:55.925Z,18.70
2019-04-29T16:56:27.513Z,20.63
2019-04-29T16:58:57.950Z,17.13
2019-04-29T17:01:28.906Z,16.97
2019-04-29T17:04:05.166Z,19.97
2019-04-29T17:06:35.843Z,17.77
2019-04-29T17:09:22.831Z,15.00
2019-04-29T17:11:50.457Z,17.93
2019-04-29T17:14:21.479Z,20.37
2019-04-29T17:16:52.018Z,13.30
2019-04-29T17:19:22.549Z,14.60
2019-04-29T17:21:53.127Z,20.60
2019-04-29T17:24:24.037Z,14.77
2019-04-29T17:27:09.340Z,17.73
2019-04-29T17:30:17.230Z,13.53
2019-04-29T17:33:07.013Z,14.37
2019-04-29T17:35:42.958Z,18.10
2019-04-29T17:38:11.233Z,15.43
2019-04-29T17:40:50.871Z,19.20
2019-04-29T17:43:33.022Z,20.33
2019-04-29T17:46:11.716Z,16.87
2019-04-29T17:48:58.417Z,19.23
2019-04-29T17:51:29.453Z,18.77
2019-04-29T17:54:03.187Z,19.60
2019-04-29T17:57:25.433Z,19.77
2019-04-29T18:00:06.980Z,15.50
2019-04-29T18:03:02.405Z,18.33
2019-04-29T18:05:58.471Z,16.90
2019-04-29T18:08:56.883Z,20.33
2019-04-29T18:11:28.197Z,20.60
2019-04-29T18:13:58.987Z,19.37
2019-04-29T18:16:39.584Z,19.67
2019-04-29T18:19:30.946Z,23.63
2019-04-29T18:22:34.913Z,24.80
2019-04-29T18:25:31.371Z,27.10
2019-04-29T18:28:02.406Z,27.37
2019-04-29T18:30:38.345Z,20.57
2019-04-29T18:33:05.456Z,25.60
2019-04-29T18:35:36.184Z,17.50
2019-04-29T18:38:07.555Z,26.43
2019-04-29T18:40:42.189Z,21.00
2019-04-29T18:43:11.402Z,21.20
2019-04-29T18:45:53.897Z,27.57
2019-04-29T18:48:18.861Z,24.03
2019-04-29T18:50:47.834Z,21.73
2019-04-29T18:53:18.696Z,23.10
2019-04-29T18:55:49.313Z,20.73
2019-04-29T18:58:20.287Z,20.27
2019-04-29T19:00:53.781Z,24.83
2019-04-29T19:03:36.328Z,24.03
2019-04-29T19:06:10.314Z,25.50
2019-04-29T19:08:39.762Z,21.53
2019-04-29T19:11:10.611Z,21.10
2019-04-29T19:13:43.534Z,21.80
2019-04-29T19:16:21.712Z,26.77
2019-04-29T19:18:47.504Z,30.27
2019-04-29T19:21:18.439Z,31.50
2019-04-29T19:23:52.572Z,38.47
2019-04-29T19:26:22.418Z,31.20
2019-04-29T19:28:54.141Z,32.73
2019-04-29T19:31:25.255Z,36.27
2019-04-29T19:33:57.383Z,35.13
2019-04-29T19:36:28.194Z,35.33
2019-04-29T19:38:58.851Z,28.47
2019-04-29T19:41:29.629Z,32.10
2019-04-29T19:44:00.471Z,39.03
2019-04-29T19:46:36.827Z,43.47
2019-04-29T19:49:09.630Z,38.10
2019-04-29T19:51:39.311Z,50.47
2019-04-29T19:54:09.931Z,48.10
2019-04-29T19:56:40.746Z,42.70
2019-04-29T19:59:13.629Z,37.27
2019-04-29T20:01:48.874Z,38.07
2019-04-29T20:04:39.854Z,31.17
2019-04-29T20:07:11.180Z,33.30
2019-04-29T20:09:43.429Z,34.67
2019-04-29T20:12:17.362Z,33.33
2019-04-29T20:14:47.437Z,32.50
2019-04-29T20:20:41.257Z,35.80
2019-04-29T20:23:11.919Z,43.03
2019-04-29T20:25:42.793Z,38.20
2019-04-29T20:28:18.442Z,41.50
2019-04-29T20:30:55.593Z,41.67
2019-04-29T20:33:24.860Z,39.60
2019-04-29T20:36:01.628Z,34.43
2019-04-29T20:38:29.784Z,33.10
2019-04-29T20:41:01.129Z,29.90
2019-04-29T20:43:33.332Z,32.27
2019-04-29T20:46:04.651Z,39.47
2019-04-29T20:48:37.131Z,29.00
2019-04-29T20:51:13.134Z,34.03
2019-04-29T20:53:46.084Z,29.30
2019-04-29T20:56:24.686Z,31.83
2019-04-29T20:58:49.454Z,32.43
2019-04-29T21:01:26.247Z,38.07
2019-04-29T21:03:56.941Z,40.53
2019-04-29T21:06:27.671Z,36.93
2019-04-29T21:08:58.560Z,34.53
2019-04-29T21:11:38.227Z,40.13
2019-04-29T21:14:33.991Z,37.53
2019-04-29T21:17:07.947Z,37.23
2019-04-29T21:19:35.363Z,38.60
2019-04-29T21:22:06.026Z,35.57
2019-04-29T21:24:36.471Z,33.53
2019-04-29T21:27:06.960Z,34.43
2019-04-29T21:29:37.396Z,34.10
2019-04-29T21:32:07.880Z,35.93
2019-04-29T21:34:57.272Z,39.63
2019-04-29T21:37:32.532Z,39.33
2019-04-29T21:40:24.308Z,35.37
2019-04-29T21:43:13.567Z,38.17
2019-04-29T21:45:44.300Z,38.67
2019-04-29T21:48:12.048Z,35.70
2019-04-29T21:50:42.739Z,42.20
2019-04-29T21:53:15.055Z,42.53
2019-04-29T21:55:45.882Z,40.80
2019-04-29T21:58:16.727Z,40.97
2019-04-29T22:00:47.512Z,42.50
2019-04-29T22:03:23.722Z,40.13
2019-04-29T22:05:53.532Z,40.80
2019-04-29T22:08:27.568Z,48.77
2019-04-29T22:10:58.363Z,44.00
2019-04-29T22:13:30.681Z,46.43
2019-04-29T22:16:01.140Z,49.00
2019-04-29T22:18:32.139Z,47.70
2019-04-29T22:21:06.599Z,53.90
2019-04-29T22:23:35.354Z,49.63
2019-04-29T22:26:06.234Z,49.33
2019-04-29T22:28:36.979Z,53.13
2019-04-29T22:31:07.866Z,54.93
2019-04-29T22:33:38.695Z,53.60
2019-04-29T22:36:10.237Z,53.20
2019-04-29T22:38:43.604Z,48.47
2019-04-29T22:41:20.250Z,50.13
2019-04-29T22:43:54.631Z,51.77
2019-04-29T22:46:26.545Z,50.67
2019-04-29T22:48:57.074Z,50.53
2019-04-29T22:51:27.830Z,46.37
2019-04-29T22:53:58.281Z,46.70
2019-04-29T22:56:28.985Z,47.43
2019-04-29T22:58:59.441Z,51.20
2019-04-29T23:01:30.017Z,45.47
2019-04-29T23:04:00.903Z,45.53
2019-04-29T23:06:31.453Z,46.03
2019-04-29T23:09:02.457Z,52.63
2019-04-29T23:11:34.823Z,47.80
2019-04-29T23:14:09.929Z,51.50
2019-04-29T23:16:38.613Z,52.03
2019-04-29T23:19:09.821Z,46.97
2019-04-29T23:22:06.712Z,54.47
2019-04-29T23:25:11.456Z,44.70
2019-04-29T23:27:41.949Z,43.73
2019-04-29T23:30:18.045Z,39.57
2019-04-29T23:32:47.640Z,40.27
2019-04-29T23:35:18.294Z,42.33
2019-04-29T23:37:48.782Z,49.90
2019-04-29T23:40:19.549Z,41.23
2019-04-29T23:42:49.964Z,44.27
2019-04-29T23:45:21.277Z,39.13
2019-04-29T23:47:52.515Z,38.77
2019-04-29T23:50:23.288Z,40.17
2019-04-29T23:52:55.565Z,39.30
2019-04-29T23:55:29.261Z,40.20
2019-04-29T23:58:32.578Z,40.97
